createdAt,value
2023-03-01T00:00:33.987Z,100420.31
2023-03-01T00:03:36.447Z,100413.50
2023-03-01T00:06:38.972Z,100400.91
2023-03-01T00:09:41.156Z,100414.28
2023-03-01T00:12:43.147Z,100406.59
2023-03-01T00:15:45.028Z,100412.50
2023-03-01T00:18:47.611Z,100407.44
2023-03-01T00:21:50.015Z,100400.69
2023-03-01T00:24:51.858Z,100406.72
2023-03-01T00:27:53.734Z,100398.91
2023-03-01T00:30:56.260Z,100402.44
2023-03-01T00:34:01.508Z,100397.16
2023-03-01T00:37:06.191Z,100406.41
2023-03-01T00:40:09.482Z,100392.94
2023-03-01T00:43:14.913Z,100397.09
2023-03-01T00:46:20.633Z,100397.09
2023-03-01T00:49:22.709Z,100395.63
2023-03-01T00:52:25.310Z,100393.91
2023-03-01T00:55:27.702Z,100395.81
2023-03-01T00:58:30.634Z,100394.03
2023-03-01T01:01:32.812Z,100386.44
2023-03-01T01:04:34.963Z,100385.81
2023-03-01T01:07:37.050Z,100383.06
2023-03-01T01:10:41.140Z,100382.28
2023-03-01T01:13:44.823Z,100373.25
2023-03-01T01:16:46.655Z,100386.69
2023-03-01T01:19:48.559Z,100369.94
2023-03-01T01:22:50.604Z,100379.41
2023-03-01T01:25:52.631Z,100367.56
2023-03-01T01:28:55.593Z,100372.72
2023-03-01T01:31:57.564Z,100380.28
2023-03-01T01:34:59.548Z,100382.94
2023-03-01T01:38:01.498Z,100374.50
2023-03-01T01:41:04.854Z,100372.81
2023-03-01T01:44:19.804Z,100370.34
2023-03-01T01:47:24.314Z,100370.41
2023-03-01T01:50:27.654Z,100350.09
2023-03-01T01:53:30.248Z,100361.91
2023-03-01T01:56:32.485Z,100346.88
2023-03-01T01:59:35.305Z,100366.28
2023-03-01T02:02:40.642Z,100336.69
2023-03-01T02:05:55.000Z,100350.22
2023-03-01T02:09:02.239Z,100347.78
2023-03-01T02:12:05.808Z,100351.28
2023-03-01T02:15:09.241Z,100346.94
2023-03-01T02:18:15.559Z,100345.13
2023-03-01T02:21:17.376Z,100352.09
2023-03-01T02:24:37.729Z,100356.97
2023-03-01T02:27:51.353Z,100358.66
2023-03-01T02:31:13.948Z,100351.91
2023-03-01T02:34:22.288Z,100351.94
2023-03-01T02:37:27.417Z,100350.22
2023-03-01T02:40:35.606Z,100342.81
2023-03-01T02:43:38.232Z,100353.00
2023-03-01T02:47:03.966Z,100345.28
2023-03-01T02:50:24.379Z,100349.63
2023-03-01T02:54:01.047Z,100354.69
2023-03-01T02:57:03.763Z,100337.88
2023-03-01T03:00:20.292Z,100336.09
2023-03-01T03:03:23.111Z,100337.88
2023-03-01T03:06:25.034Z,100343.03
2023-03-01T03:09:28.063Z,100350.59
2023-03-01T03:12:31.679Z,100348.06
2023-03-01T03:15:37.004Z,100356.59
2023-03-01T03:18:38.979Z,100349.84
2023-03-01T03:21:41.104Z,100369.38
2023-03-01T03:24:42.939Z,100355.78
2023-03-01T03:27:46.467Z,100355.00
2023-03-01T03:30:48.978Z,100361.69
2023-03-01T03:33:50.877Z,100364.28
2023-03-01T03:37:00.513Z,100365.13
2023-03-01T03:40:02.452Z,100359.09
2023-03-01T03:43:06.676Z,100366.69
2023-03-01T03:46:08.904Z,100365.00
2023-03-01T03:49:11.004Z,100361.66
2023-03-01T03:52:14.416Z,100368.44
2023-03-01T03:55:20.300Z,100363.34
2023-03-01T03:58:24.168Z,100359.06
2023-03-01T04:01:26.221Z,100365.84
2023-03-01T04:04:28.327Z,100359.88
2023-03-01T04:07:30.277Z,100369.06
2023-03-01T04:10:38.571Z,100349.59
2023-03-01T04:13:40.687Z,100375.75
2023-03-01T04:16:42.683Z,100361.41
2023-03-01T04:19:45.099Z,100369.00
2023-03-01T04:22:47.997Z,100370.81
2023-03-01T04:25:55.182Z,100360.53
2023-03-01T04:28:57.290Z,100371.53
2023-03-01T04:32:00.181Z,100357.97
2023-03-01T04:35:02.206Z,100362.34
2023-03-01T04:38:05.011Z,100354.72
2023-03-01T04:41:11.766Z,100367.38
2023-03-01T04:44:14.054Z,100369.00
2023-03-01T04:47:16.044Z,100360.66
2023-03-01T04:50:18.463Z,100363.13
2023-03-01T04:53:20.859Z,100349.69
2023-03-01T04:56:24.118Z,100345.28
2023-03-01T04:59:26.597Z,100342.78
2023-03-01T05:02:28.448Z,100337.75
2023-03-01T05:05:37.180Z,100326.88
2023-03-01T05:08:40.588Z,100329.34
2023-03-01T05:11:42.790Z,100336.25
2023-03-01T05:14:44.822Z,100329.56
2023-03-01T05:17:47.230Z,100334.66
2023-03-01T05:20:50.590Z,100332.13
2023-03-01T05:23:53.130Z,100338.75
2023-03-01T05:26:55.358Z,100340.19
2023-03-01T05:29:57.600Z,100344.34
2023-03-01T05:32:59.565Z,100349.59
2023-03-01T05:36:01.893Z,100349.41
2023-03-01T05:39:04.022Z,100357.03
2023-03-01T05:42:06.395Z,100349.47
2023-03-01T05:45:10.678Z,100352.06
2023-03-01T05:48:20.444Z,100339.28
2023-03-01T05:51:43.884Z,100348.53
2023-03-01T05:55:06.251Z,100353.56
2023-03-01T05:58:11.504Z,100350.72
2023-03-01T06:01:14.545Z,100357.63
2023-03-01T06:04:16.705Z,100349.94
2023-03-01T06:07:18.725Z,100352.41
2023-03-01T06:10:22.477Z,100351.44
2023-03-01T06:13:24.937Z,100343.63
2023-03-01T06:16:26.792Z,100353.84
2023-03-01T06:19:28.703Z,100353.78
2023-03-01T06:22:30.667Z,100354.03
2023-03-01T06:25:33.116Z,100354.69
2023-03-01T06:28:36.207Z,100363.88
2023-03-01T06:31:38.369Z,100362.00
2023-03-01T06:34:40.516Z,100350.81
2023-03-01T06:37:42.639Z,100355.91
2023-03-01T06:40:46.160Z,100353.16
2023-03-01T06:43:48.040Z,100343.72
2023-03-01T06:46:50.144Z,100357.44
2023-03-01T06:49:52.076Z,100335.09
2023-03-01T06:52:57.361Z,100349.09
2023-03-01T06:56:01.420Z,100348.28
2023-03-01T06:59:04.959Z,100339.94
2023-03-01T07:02:14.881Z,100338.00
2023-03-01T07:05:19.148Z,100340.81
2023-03-01T07:08:24.297Z,100343.69
2023-03-01T07:11:32.902Z,100349.47
2023-03-01T07:14:39.267Z,100345.78
2023-03-01T07:17:43.189Z,100353.50
2023-03-01T07:20:47.557Z,100324.84
2023-03-01T07:24:13.164Z,100335.91
2023-03-01T07:27:36.432Z,100353.09
2023-03-01T07:31:06.519Z,100354.44
2023-03-01T07:34:29.663Z,100348.88
2023-03-01T07:37:53.031Z,100358.19
2023-03-01T07:41:15.901Z,100329.66
2023-03-01T07:44:18.999Z,100348.25
2023-03-01T07:47:21.911Z,100341.72
2023-03-01T07:50:27.924Z,100361.97
2023-03-01T07:53:32.924Z,100336.44
2023-03-01T07:56:37.409Z,100337.22
2023-03-01T07:59:41.404Z,100347.19
2023-03-01T08:02:48.124Z,100321.63
2023-03-01T08:06:04.479Z,100338.00
2023-03-01T08:09:14.420Z,100330.66
2023-03-01T08:12:24.160Z,100329.47
2023-03-01T08:15:31.153Z,100339.63
2023-03-01T08:18:38.315Z,100341.03
2023-03-01T08:21:44.492Z,100330.56
2023-03-01T08:24:51.416Z,100323.34
2023-03-01T08:27:55.452Z,100328.25
2023-03-01T08:31:01.644Z,100320.50
2023-03-01T08:34:12.260Z,100334.91
2023-03-01T08:37:16.227Z,100323.97
2023-03-01T08:40:22.570Z,100329.81
2023-03-01T08:43:26.916Z,100330.63
2023-03-01T08:46:39.190Z,100318.50
2023-03-01T09:04:20.064Z,100329.75
2023-03-01T09:07:29.904Z,100309.50
2023-03-01T09:10:39.610Z,100314.50
2023-03-01T09:13:44.395Z,100308.72
2023-03-01T09:16:50.214Z,100316.91
2023-03-01T09:20:01.368Z,100305.06
2023-03-01T09:23:12.445Z,100300.13
2023-03-01T09:26:22.934Z,100282.81
2023-03-01T09:29:27.655Z,100284.56
2023-03-01T09:32:44.251Z,100282.72
2023-03-01T09:36:07.107Z,100272.56
2023-03-01T09:39:14.022Z,100277.56
2023-03-01T09:42:18.152Z,100280.13
2023-03-01T09:45:36.114Z,100263.91
2023-03-01T09:48:56.800Z,100273.28
2023-03-01T09:52:27.151Z,100265.50
2023-03-01T09:55:42.922Z,100264.75
2023-03-01T09:58:55.785Z,100269.31
2023-03-01T10:02:11.465Z,100254.78
2023-03-01T10:05:33.647Z,100266.63
2023-03-01T10:08:44.863Z,100251.75
2023-03-01T10:11:59.422Z,100242.13
2023-03-01T10:15:15.913Z,100238.94
2023-03-01T10:18:24.924Z,100230.88
2023-03-01T10:21:33.196Z,100222.19
2023-03-01T10:24:38.224Z,100223.16
2023-03-01T10:27:54.225Z,100210.78
2023-03-01T10:30:59.908Z,100218.69
2023-03-01T10:34:04.382Z,100210.63
2023-03-01T10:37:14.824Z,100220.41
2023-03-01T10:40:20.477Z,100195.63
2023-03-01T10:43:27.112Z,100200.09
2023-03-01T10:46:34.419Z,100202.75
2023-03-01T10:49:38.087Z,100201.34
2023-03-01T10:52:43.609Z,100186.03
2023-03-01T10:55:47.698Z,100178.09
2023-03-01T10:59:02.088Z,100181.34
2023-03-01T11:02:24.636Z,100171.25
2023-03-01T11:05:35.077Z,100163.81
2023-03-01T11:08:46.760Z,100159.44
2023-03-01T11:11:57.551Z,100162.41
2023-03-01T11:15:00.895Z,100159.25
2023-03-01T11:18:13.764Z,100154.56
2023-03-01T11:21:18.412Z,100139.91
2023-03-01T11:24:30.277Z,100141.13
2023-03-01T11:27:38.188Z,100140.78
2023-03-01T11:31:07.772Z,100144.19
2023-03-01T11:34:21.434Z,100145.72
2023-03-01T11:37:49.986Z,100129.16
2023-03-01T11:41:12.524Z,100126.38
2023-03-01T11:44:15.596Z,100126.44
2023-03-01T11:47:52.526Z,100116.78
2023-03-01T11:51:04.132Z,100123.00
2023-03-01T11:54:22.729Z,100116.72
2023-03-01T11:57:48.941Z,100110.34
2023-03-01T12:01:05.787Z,100108.91
2023-03-01T12:04:27.653Z,100110.50
2023-03-01T12:08:17.384Z,100100.56
2023-03-01T12:11:39.127Z,100105.09
2023-03-01T12:15:01.000Z,100100.78
2023-03-01T12:18:22.413Z,100097.44
2023-03-01T12:21:31.154Z,100095.34
2023-03-01T12:24:43.523Z,100087.09
2023-03-01T12:27:51.199Z,100075.03
2023-03-01T12:31:14.732Z,100082.66
2023-03-01T12:34:25.664Z,100078.81
2023-03-01T12:37:52.989Z,100086.28
2023-03-01T12:41:36.979Z,100069.41
2023-03-01T12:44:45.200Z,100063.28
2023-03-01T12:48:45.788Z,100056.84
2023-03-01T12:51:57.675Z,100049.97
2023-03-01T12:55:29.807Z,100044.91
2023-03-01T12:59:16.324Z,100055.53
2023-03-01T13:03:16.744Z,100052.56
2023-03-01T13:07:16.972Z,100044.22
2023-03-01T13:11:24.765Z,100030.91
2023-03-01T13:15:26.429Z,100026.09
2023-03-01T13:19:30.249Z,100032.34
2023-03-01T13:23:23.931Z,100023.59
2023-03-01T13:27:07.758Z,100016.16
2023-03-01T13:30:32.614Z,100021.94
2023-03-01T13:33:42.196Z,100016.53
2023-03-01T13:36:50.105Z,100019.19
2023-03-01T13:39:52.868Z,100016.50
2023-03-01T13:43:05.368Z,100012.28
2023-03-01T13:46:21.239Z,100014.19
2023-03-01T13:49:31.484Z,100011.53
2023-03-01T13:52:47.604Z,100016.34
2023-03-01T13:55:55.192Z,100011.28
2023-03-01T13:59:02.631Z,100003.13
2023-03-01T14:02:13.427Z,100015.13
2023-03-01T14:05:15.465Z,100008.06
2023-03-01T14:08:26.767Z,100007.63
2023-03-01T14:11:28.597Z,100017.66
2023-03-01T14:14:47.659Z,100010.78
2023-03-01T14:18:01.225Z,100005.78
2023-03-01T14:21:10.001Z,99997.63
2023-03-01T14:24:21.536Z,100000.72
2023-03-01T14:27:27.550Z,99997.31
2023-03-01T14:30:43.490Z,99994.25
2023-03-01T14:33:56.094Z,99997.81
2023-03-01T14:36:57.963Z,99995.53
2023-03-01T14:40:01.458Z,99989.97
2023-03-01T14:43:12.083Z,99995.16
2023-03-01T14:46:37.425Z,99991.66
2023-03-01T14:49:39.579Z,99995.53
2023-03-01T14:52:46.085Z,99991.81
2023-03-01T14:55:51.636Z,99988.56
2023-03-01T14:59:00.364Z,99997.31
2023-03-01T15:02:02.598Z,99982.41
2023-03-01T15:05:08.102Z,99980.16
2023-03-01T15:08:20.079Z,99966.59
2023-03-01T15:11:32.203Z,99976.59
2023-03-01T15:14:52.172Z,99980.78
2023-03-01T15:18:04.188Z,99967.00
2023-03-01T15:21:16.205Z,99978.50
2023-03-01T15:24:29.973Z,99972.50
2023-03-01T15:27:31.874Z,99976.56
2023-03-01T15:30:38.434Z,99983.94
2023-03-01T15:33:48.093Z,99982.69
2023-03-01T15:36:51.696Z,99977.22
2023-03-01T15:39:57.871Z,99975.25
2023-03-01T15:43:01.084Z,99984.63
2023-03-01T15:46:03.146Z,99988.41
2023-03-01T15:49:35.484Z,99987.41
2023-03-01T15:52:43.808Z,99984.59
2023-03-01T15:55:47.927Z,99994.56
2023-03-01T15:58:49.931Z,99994.34
2023-03-01T16:01:51.983Z,99990.00
2023-03-01T16:04:54.836Z,99998.88
2023-03-01T16:07:56.779Z,99994.06
2023-03-01T16:10:59.722Z,99995.72
2023-03-01T16:14:01.753Z,99997.34
2023-03-01T16:17:03.838Z,99988.22
2023-03-01T16:20:06.541Z,99999.09
2023-03-01T16:23:17.320Z,99990.91
2023-03-01T16:26:21.346Z,99984.63
2023-03-01T16:29:23.497Z,99982.41
2023-03-01T16:32:25.970Z,99982.78
2023-03-01T16:35:28.491Z,99983.91
2023-03-01T16:38:32.617Z,99981.88
2023-03-01T16:41:34.684Z,99979.56
2023-03-01T16:44:36.856Z,99979.13
2023-03-01T16:47:38.960Z,99983.31
2023-03-01T16:50:41.542Z,99987.13
2023-03-01T16:53:46.341Z,99977.63
2023-03-01T16:56:49.220Z,99979.94
2023-03-01T16:59:54.776Z,99979.97
2023-03-01T17:02:56.886Z,99949.28
2023-03-01T17:06:02.920Z,99972.69
2023-03-01T17:09:04.883Z,99978.00
2023-03-01T17:12:07.451Z,99982.56
2023-03-01T17:15:10.653Z,99981.94
2023-03-01T17:18:12.919Z,99984.72
2023-03-01T17:21:15.448Z,99985.44
2023-03-01T17:24:17.709Z,99985.63
2023-03-01T17:27:27.225Z,99956.94
2023-03-01T17:30:29.678Z,99972.19
2023-03-01T17:33:33.446Z,99974.69
2023-03-01T17:36:43.988Z,99977.75
2023-03-01T17:39:46.118Z,99978.38
2023-03-01T17:42:48.235Z,99981.69
2023-03-01T17:45:52.437Z,99981.25
2023-03-01T17:48:54.371Z,99975.53
2023-03-01T17:51:56.645Z,99992.75
2023-03-01T17:54:58.703Z,99997.88
2023-03-01T17:58:00.843Z,99987.66
2023-03-01T18:01:20.464Z,99988.97
2023-03-01T18:04:22.956Z,99982.13
2023-03-01T18:07:28.299Z,100000.84
2023-03-01T18:10:32.619Z,99998.28
2023-03-01T18:13:35.984Z,100009.66
2023-03-01T18:16:39.811Z,99993.69
2023-03-01T18:19:41.926Z,99996.41
2023-03-01T18:22:43.921Z,99999.13
2023-03-01T18:25:46.113Z,100013.84
2023-03-01T18:28:52.173Z,100002.63
2023-03-01T18:32:04.001Z,99964.41
2023-03-01T18:35:07.600Z,99994.72
2023-03-01T18:38:09.880Z,100014.81
2023-03-01T18:41:12.070Z,100005.66
2023-03-01T18:44:14.670Z,100010.56
2023-03-01T18:47:19.848Z,100001.00
2023-03-01T18:50:22.703Z,100005.88
2023-03-01T18:53:24.588Z,100013.78
2023-03-01T18:56:29.662Z,100009.19
2023-03-01T18:59:32.487Z,100000.06
2023-03-01T19:02:34.787Z,100014.06
2023-03-01T19:05:41.023Z,100016.63
2023-03-01T19:08:44.594Z,100006.84
2023-03-01T19:11:46.705Z,100021.47
2023-03-01T19:14:49.107Z,100014.06
2023-03-01T19:17:53.091Z,100023.66
2023-03-01T19:21:03.880Z,100000.00
2023-03-01T19:24:07.511Z,100007.16
2023-03-01T19:27:10.037Z,100002.06
2023-03-01T19:30:12.607Z,100019.06
2023-03-01T19:33:15.418Z,100004.09
2023-03-01T19:36:18.686Z,100004.84
2023-03-01T19:39:20.847Z,100001.94
2023-03-01T19:42:27.586Z,100006.94
2023-03-01T19:45:33.678Z,100009.66
2023-03-01T19:48:36.122Z,100000.81
2023-03-01T19:51:39.444Z,100019.63
2023-03-01T19:54:41.724Z,100009.41
2023-03-01T19:57:43.698Z,100014.47
2023-03-01T20:00:47.338Z,100021.38
2023-03-01T20:03:49.471Z,99998.66
2023-03-01T20:06:51.660Z,100018.13
2023-03-01T20:09:53.818Z,100013.16
2023-03-01T20:12:56.184Z,100009.59
2023-03-01T20:15:58.230Z,100015.38
2023-03-01T20:19:01.201Z,100013.56
2023-03-01T20:22:03.626Z,100005.13
2023-03-01T20:25:06.837Z,100011.41
2023-03-01T20:28:09.212Z,100010.16
2023-03-01T20:31:12.696Z,100016.66
2023-03-01T20:34:15.042Z,100007.31
2023-03-01T20:37:17.308Z,100002.22
2023-03-01T20:40:26.960Z,99993.31
2023-03-01T20:43:29.483Z,99993.41
2023-03-01T20:46:32.824Z,99997.66
2023-03-01T20:49:35.414Z,100005.19
2023-03-01T20:52:47.135Z,99998.44
2023-03-01T20:55:49.812Z,99988.09
2023-03-01T20:58:51.969Z,99994.16
2023-03-01T21:01:54.254Z,99983.22
2023-03-01T21:04:56.380Z,100002.81
2023-03-01T21:08:01.143Z,99992.97
2023-03-01T21:11:06.274Z,99984.69
2023-03-01T21:14:09.724Z,99990.00
2023-03-01T21:17:15.151Z,99994.34
2023-03-01T21:20:19.836Z,99987.59
2023-03-01T21:23:22.418Z,99986.88
2023-03-01T21:26:26.541Z,99983.53
2023-03-01T21:29:28.593Z,99981.88
2023-03-01T21:32:30.604Z,99990.81
2023-03-01T21:35:32.464Z,99991.88
2023-03-01T21:38:37.670Z,99994.66
2023-03-01T21:41:39.644Z,99986.19
2023-03-01T21:44:41.612Z,99982.69
2023-03-01T21:47:43.656Z,99987.69
2023-03-01T21:50:53.935Z,100001.59
2023-03-01T21:53:56.483Z,99995.66
2023-03-01T21:56:58.355Z,99989.00
2023-03-01T22:00:08.046Z,99968.06
2023-03-01T22:03:18.211Z,99991.41
2023-03-01T22:06:34.270Z,99999.06
2023-03-01T22:09:36.485Z,99989.72
2023-03-01T22:12:38.855Z,99988.97
2023-03-01T22:15:42.001Z,99984.00
2023-03-01T22:18:43.868Z,99994.34
2023-03-01T22:21:49.807Z,100000.94
2023-03-01T22:24:51.773Z,99980.75
2023-03-01T22:27:53.849Z,99992.59
2023-03-01T22:30:56.072Z,99994.63
2023-03-01T22:33:59.677Z,99997.81
2023-03-01T22:37:01.643Z,99993.34
2023-03-01T22:40:04.613Z,100000.94
2023-03-01T22:43:06.870Z,100003.03
2023-03-01T22:46:18.233Z,99991.75
2023-03-01T22:49:21.108Z,100003.03
2023-03-01T22:52:23.381Z,99995.41
2023-03-01T22:55:27.642Z,99991.97
2023-03-01T22:58:29.504Z,99993.94
2023-03-01T23:01:31.985Z,100000.63
2023-03-01T23:04:34.100Z,99993.91
2023-03-01T23:07:37.607Z,99972.28
2023-03-01T23:10:40.912Z,99993.41
2023-03-01T23:13:43.742Z,99991.03
2023-03-01T23:16:45.739Z,99996.66
2023-03-01T23:19:47.900Z,99994.22
2023-03-01T23:22:49.758Z,99992.56
2023-03-01T23:25:58.476Z,99987.19
2023-03-01T23:29:00.480Z,99992.38
2023-03-01T23:32:02.466Z,99985.50
2023-03-01T23:35:06.015Z,99993.00
2023-03-01T23:38:07.944Z,99981.31
2023-03-01T23:41:15.566Z,99977.91
2023-03-01T23:44:19.781Z,99981.16
2023-03-01T23:47:21.627Z,99979.69
2023-03-01T23:50:24.407Z,99972.03
2023-03-01T23:53:27.789Z,99971.34
2023-03-01T23:56:35.972Z,99982.25
2023-03-01T23:59:38.028Z,99982.44
